createdAt,value
2019-05-18T00:02:26.900Z,94.11
2019-05-18T00:04:58.477Z,95.56
2019-05-18T00:07:28.873Z,97.48
2019-05-18T00:09:59.379Z,98.63
2019-05-18T00:12:29.767Z,99.68
2019-05-18T00:15:00.178Z,100.00
2019-05-18T00:17:31.677Z,100.00
2019-05-18T00:20:02.979Z,100.00
2019-05-18T00:22:33.709Z,100.00
2019-05-18T00:25:05.291Z,100.00
2019-05-18T00:27:35.714Z,100.00
2019-05-18T00:30:06.921Z,100.00
2019-05-18T00:32:37.755Z,100.00
2019-05-18T00:35:09.017Z,99.83
2019-05-18T00:37:40.153Z,99.83
2019-05-18T00:40:11.078Z,100.00
2019-05-18T00:42:41.480Z,100.00
2019-05-18T00:45:11.994Z,100.00
2019-05-18T00:47:42.584Z,100.00
2019-05-18T00:50:14.389Z,100.00
2019-05-18T00:52:44.922Z,100.00
2019-05-18T00:55:16.417Z,99.48
2019-05-18T00:57:47.037Z,98.55
2019-05-18T01:00:19.272Z,98.25
2019-05-18T01:02:49.681Z,97.82
2019-05-18T01:05:20.412Z,97.39
2019-05-18T01:07:51.224Z,97.19
2019-05-18T01:10:21.739Z,98.13
2019-05-18T01:12:52.243Z,98.86
2019-05-18T01:15:23.253Z,99.11
2019-05-18T01:17:57.219Z,99.08
2019-05-18T01:20:26.386Z,98.96
2019-05-18T01:22:57.059Z,99.69
2019-05-18T01:25:27.836Z,100.00
2019-05-18T01:27:58.618Z,100.00
2019-05-18T01:30:28.937Z,100.00
2019-05-18T01:32:59.368Z,100.00
2019-05-18T01:35:30.017Z,100.00
2019-05-18T01:38:00.440Z,100.00
2019-05-18T01:40:30.885Z,100.00
2019-05-18T01:43:01.803Z,99.66
2019-05-18T01:45:32.140Z,99.13
2019-05-18T01:48:13.129Z,98.84
2019-05-18T01:50:35.617Z,99.51
2019-05-18T01:53:06.090Z,100.00
2019-05-18T01:55:36.803Z,100.00
2019-05-18T01:58:07.218Z,99.34
2019-05-18T02:00:37.593Z,97.42
2019-05-18T02:03:08.250Z,95.90
2019-05-18T02:05:38.580Z,95.84
2019-05-18T02:08:08.942Z,95.12
2019-05-18T02:10:39.463Z,92.96
2019-05-18T02:13:09.889Z,91.54
2019-05-18T02:15:40.188Z,92.36
2019-05-18T02:18:10.711Z,93.10
2019-05-18T02:20:42.479Z,92.40
2019-05-18T02:23:12.783Z,91.79
2019-05-18T02:25:43.459Z,91.20
2019-05-18T02:28:13.971Z,91.09
2019-05-18T02:30:44.315Z,91.45
2019-05-18T02:33:14.752Z,91.88
2019-05-18T02:35:45.606Z,92.87
2019-05-18T02:38:19.387Z,92.64
2019-05-18T02:40:49.905Z,91.88
2019-05-18T02:43:20.630Z,94.36
2019-05-18T02:45:51.013Z,95.24
2019-05-18T02:48:21.301Z,94.89
2019-05-18T02:50:52.119Z,92.96
2019-05-18T02:53:22.692Z,91.80
2019-05-18T02:55:53.415Z,92.60
2019-05-18T02:58:24.685Z,92.74
2019-05-18T03:00:55.135Z,92.27
2019-05-18T03:03:25.682Z,95.74
2019-05-18T03:05:56.234Z,95.77
2019-05-18T03:08:26.634Z,95.58
2019-05-18T03:10:57.618Z,97.36
2019-05-18T03:13:27.946Z,95.85
2019-05-18T03:15:58.239Z,94.19
2019-05-18T03:18:29.179Z,93.01
2019-05-18T03:21:00.121Z,91.17
2019-05-18T03:23:30.652Z,92.28
2019-05-18T03:26:00.958Z,93.30
2019-05-18T03:28:31.321Z,94.65
2019-05-18T03:31:02.103Z,93.70
2019-05-18T03:33:32.790Z,93.63
2019-05-18T03:36:03.083Z,94.00
2019-05-18T03:38:33.813Z,94.04
2019-05-18T03:41:04.299Z,94.47
2019-05-18T03:43:34.644Z,94.60
2019-05-18T03:46:05.048Z,94.69
2019-05-18T03:48:35.695Z,94.13
2019-05-18T03:51:06.556Z,94.31
2019-05-18T03:53:36.998Z,95.39
2019-05-18T03:56:07.366Z,95.56
2019-05-18T03:58:38.054Z,96.20
2019-05-18T04:01:08.849Z,96.63
2019-05-18T04:03:39.390Z,97.68
2019-05-18T04:06:10.202Z,96.22
2019-05-18T04:08:41.017Z,96.03
2019-05-18T04:11:11.349Z,96.81
2019-05-18T04:13:41.737Z,96.41
2019-05-18T04:16:12.243Z,95.39
2019-05-18T04:18:42.554Z,95.75
2019-05-18T04:21:13.079Z,96.10
2019-05-18T04:23:43.598Z,95.61
2019-05-18T04:26:13.969Z,95.66
2019-05-18T04:28:44.667Z,95.12
2019-05-18T04:31:15.131Z,94.84
2019-05-18T04:33:45.644Z,95.47
2019-05-18T04:36:16.113Z,95.56
2019-05-18T04:38:46.496Z,95.94
2019-05-18T04:41:16.941Z,95.44
2019-05-18T04:43:47.571Z,95.25
2019-05-18T04:46:18.006Z,95.67
2019-05-18T04:48:48.332Z,94.55
2019-05-18T04:51:20.099Z,93.53
2019-05-18T04:53:50.624Z,92.58
2019-05-18T04:56:20.986Z,93.75
2019-05-18T04:58:51.771Z,92.97
2019-05-18T05:01:22.107Z,92.71
2019-05-18T05:03:52.554Z,92.61
2019-05-18T05:06:22.880Z,92.43
2019-05-18T05:08:53.189Z,92.10
2019-05-18T05:11:24.018Z,92.35
2019-05-18T05:13:54.561Z,91.73
2019-05-18T05:16:24.877Z,91.92
2019-05-18T05:18:55.393Z,92.81
2019-05-18T05:21:26.238Z,91.49
2019-05-18T05:23:56.633Z,90.60
2019-05-18T05:26:27.410Z,92.64
2019-05-18T05:28:58.143Z,93.47
2019-05-18T05:31:28.467Z,93.12
2019-05-18T05:33:58.840Z,93.16
2019-05-18T05:36:29.547Z,92.91
2019-05-18T05:39:00.861Z,93.68
2019-05-18T05:41:31.446Z,93.15
2019-05-18T05:44:01.853Z,92.30
2019-05-18T05:46:32.423Z,91.68
2019-05-18T05:49:03.264Z,89.79
2019-05-18T05:51:33.560Z,88.07
2019-05-18T05:54:04.196Z,88.02
2019-05-18T05:56:34.891Z,87.15
2019-05-18T05:59:05.264Z,85.88
2019-05-18T06:01:36.774Z,85.03
2019-05-18T06:04:07.404Z,83.29
2019-05-18T06:06:37.964Z,81.22
2019-05-18T06:09:09.139Z,80.27
2019-05-18T06:11:39.497Z,79.05
2019-05-18T06:14:10.043Z,77.96
2019-05-18T06:16:40.775Z,77.73
2019-05-18T06:19:11.194Z,77.59
2019-05-18T06:21:41.561Z,77.07
2019-05-18T06:24:12.252Z,74.98
2019-05-18T06:26:42.668Z,75.41
2019-05-18T06:29:13.002Z,75.03
2019-05-18T06:31:43.419Z,73.86
2019-05-18T06:34:13.811Z,73.42
2019-05-18T06:36:45.060Z,73.48
2019-05-18T06:39:15.735Z,72.90
2019-05-18T06:41:46.307Z,72.85
2019-05-18T06:44:16.752Z,73.13
2019-05-18T06:46:47.426Z,72.21
2019-05-18T06:49:18.207Z,72.34
2019-05-18T06:51:48.627Z,72.27
2019-05-18T06:54:19.268Z,72.64
2019-05-18T06:56:51.173Z,72.33
2019-05-18T06:59:21.803Z,70.41
2019-05-18T07:01:52.288Z,70.48
2019-05-18T07:04:22.729Z,70.83
2019-05-18T07:06:53.035Z,70.68
2019-05-18T07:09:23.741Z,68.82
2019-05-18T07:11:56.112Z,70.39
2019-05-18T07:14:27.392Z,69.10
2019-05-18T07:16:58.058Z,69.73
2019-05-18T07:19:28.480Z,69.37
2019-05-18T07:21:58.885Z,69.05
2019-05-18T07:24:29.476Z,71.19
2019-05-18T07:26:59.840Z,70.45
2019-05-18T07:29:30.314Z,71.17
2019-05-18T07:32:01.065Z,72.19
2019-05-18T07:34:31.410Z,70.21
2019-05-18T07:37:01.703Z,71.36
2019-05-18T07:39:35.846Z,70.02
2019-05-18T07:42:04.557Z,69.39
2019-05-18T07:44:35.150Z,69.32
2019-05-18T07:47:05.458Z,69.12
2019-05-18T07:49:35.792Z,69.16
2019-05-18T07:52:06.632Z,70.18
2019-05-18T07:54:37.246Z,68.95
2019-05-18T07:57:07.565Z,70.03
2019-05-18T07:59:38.334Z,68.15
2019-05-18T08:02:08.794Z,68.79
2019-05-18T08:04:39.842Z,68.82
2019-05-18T08:07:10.790Z,70.49
2019-05-18T08:09:41.409Z,68.22
2019-05-18T08:12:11.822Z,68.11
2019-05-18T08:14:42.362Z,67.04
2019-05-18T08:17:12.746Z,67.52
2019-05-18T08:19:43.497Z,66.51
2019-05-18T08:22:14.165Z,66.99
2019-05-18T08:24:44.525Z,66.64
2019-05-18T08:27:15.239Z,65.44
2019-05-18T08:29:45.684Z,66.05
2019-05-18T08:32:16.964Z,64.99
2019-05-18T08:34:47.389Z,64.34
2019-05-18T08:37:17.992Z,66.17
2019-05-18T08:39:49.297Z,66.17
2019-05-18T08:42:19.849Z,65.54
2019-05-18T08:44:50.342Z,64.18
2019-05-18T08:47:21.140Z,65.12
2019-05-18T08:49:51.945Z,62.38
2019-05-18T08:52:23.427Z,61.52
2019-05-18T08:54:53.897Z,60.28
2019-05-18T08:57:24.682Z,60.10
2019-05-18T08:59:54.977Z,60.93
2019-05-18T09:02:25.396Z,59.88
2019-05-18T09:04:55.798Z,59.66
2019-05-18T09:07:26.262Z,59.43
2019-05-18T09:09:56.612Z,60.32
2019-05-18T09:12:27.048Z,59.36
2019-05-18T09:14:57.698Z,59.64
2019-05-18T09:17:28.361Z,58.58
2019-05-18T09:19:58.661Z,58.61
2019-05-18T09:22:29.032Z,59.25
2019-05-18T09:24:59.827Z,58.44
2019-05-18T09:27:30.296Z,56.44
2019-05-18T09:30:00.686Z,55.83
2019-05-18T09:32:31.436Z,56.40
2019-05-18T09:35:01.843Z,56.14
2019-05-18T09:37:32.700Z,54.88
2019-05-18T09:40:03.519Z,53.95
2019-05-18T09:42:34.153Z,54.49
2019-05-18T09:45:04.999Z,54.42
2019-05-18T09:47:35.912Z,55.86
2019-05-18T09:50:06.709Z,52.87
2019-05-18T09:52:46.203Z,54.11
2019-05-18T09:55:10.861Z,53.36
2019-05-18T09:57:41.256Z,52.29
2019-05-18T10:00:12.505Z,50.49
2019-05-18T10:02:43.012Z,49.64
2019-05-18T10:05:13.819Z,47.74
2019-05-18T10:07:44.676Z,46.35
2019-05-18T10:10:15.709Z,44.33
2019-05-18T10:12:46.249Z,43.73
2019-05-18T10:15:16.943Z,44.00
2019-05-18T10:17:47.555Z,44.38
2019-05-18T10:20:17.949Z,44.46
2019-05-18T10:22:59.224Z,43.63
2019-05-18T10:25:20.614Z,43.36
2019-05-18T10:27:51.389Z,43.48
2019-05-18T10:30:22.117Z,43.31
2019-05-18T10:32:52.444Z,43.08
2019-05-18T10:35:22.969Z,41.96
2019-05-18T10:37:53.805Z,40.78
2019-05-18T10:40:24.107Z,39.02
2019-05-18T10:42:54.577Z,37.24
2019-05-18T10:45:25.446Z,37.74
2019-05-18T10:47:55.957Z,37.30
2019-05-18T10:50:26.322Z,34.86
2019-05-18T10:52:57.250Z,34.87
2019-05-18T10:55:27.779Z,31.97
2019-05-18T10:57:58.207Z,33.53
2019-05-18T11:00:29.059Z,33.79
2019-05-18T11:02:59.553Z,36.67
2019-05-18T11:05:29.904Z,34.79
2019-05-18T11:08:00.596Z,33.09
2019-05-18T11:10:31.410Z,33.41
2019-05-18T11:13:01.823Z,32.08
2019-05-18T11:15:32.382Z,32.68
2019-05-18T11:18:03.169Z,30.20
2019-05-18T11:20:33.521Z,30.03
2019-05-18T11:23:03.928Z,30.46
2019-05-18T11:25:34.505Z,30.31
2019-05-18T11:28:04.905Z,28.54
2019-05-18T11:30:35.394Z,27.81
2019-05-18T11:33:05.725Z,27.79
2019-05-18T11:35:36.325Z,26.68
2019-05-18T11:38:06.847Z,25.71
2019-05-18T11:40:37.200Z,25.69
2019-05-18T11:43:07.601Z,26.03
2019-05-18T11:45:38.319Z,24.71
2019-05-18T11:48:08.755Z,23.36
2019-05-18T11:50:39.097Z,22.77
2019-05-18T11:53:09.633Z,23.10
2019-05-18T11:55:40.127Z,22.87
2019-05-18T11:58:10.557Z,23.35
2019-05-18T12:00:40.854Z,23.65
2019-05-18T12:03:11.180Z,22.62
2019-05-18T12:05:42.001Z,24.67
2019-05-18T12:08:12.403Z,24.09
2019-05-18T12:10:42.744Z,23.59
2019-05-18T12:13:13.624Z,23.52
2019-05-18T12:15:44.268Z,23.84
2019-05-18T12:18:14.795Z,23.45
2019-05-18T12:20:45.581Z,24.09
2019-05-18T12:23:16.112Z,23.43
2019-05-18T12:25:46.422Z,23.34
2019-05-18T12:28:17.968Z,22.95
2019-05-18T12:30:48.260Z,22.03
2019-05-18T12:33:19.109Z,19.25
2019-05-18T12:35:49.642Z,21.68
2019-05-18T12:38:19.953Z,21.85
2019-05-18T12:40:50.596Z,21.35
2019-05-18T12:43:21.140Z,20.38
2019-05-18T12:45:51.490Z,22.11
2019-05-18T12:48:23.280Z,21.38
2019-05-18T12:50:54.027Z,19.87
2019-05-18T12:53:24.420Z,20.95
2019-05-18T12:55:54.962Z,21.39
2019-05-18T12:58:25.706Z,22.44
2019-05-18T13:00:56.191Z,22.71
2019-05-18T13:03:26.597Z,22.78
2019-05-18T13:05:56.953Z,22.96
2019-05-18T13:08:27.707Z,22.68
2019-05-18T13:10:58.454Z,22.36
2019-05-18T13:13:28.885Z,21.83
2019-05-18T13:15:59.445Z,22.40
2019-05-18T13:18:30.116Z,21.93
2019-05-18T13:21:00.588Z,21.55
2019-05-18T13:23:30.968Z,26.03
2019-05-18T13:26:01.386Z,27.17
2019-05-18T13:28:31.721Z,25.36
2019-05-18T13:31:02.022Z,26.49
2019-05-18T13:33:32.475Z,24.61
2019-05-18T13:36:02.937Z,25.57
2019-05-18T13:38:33.671Z,25.48
2019-05-18T13:41:04.151Z,23.44
2019-05-18T13:43:34.518Z,24.11
2019-05-18T13:46:05.290Z,24.06
2019-05-18T13:48:35.612Z,24.08
2019-05-18T13:51:05.973Z,25.31
2019-05-18T13:53:36.583Z,23.75
2019-05-18T13:56:06.914Z,21.65
2019-05-18T13:58:37.245Z,21.78
2019-05-18T14:01:07.685Z,21.61
2019-05-18T14:03:38.293Z,22.06
2019-05-18T14:06:08.823Z,22.22
2019-05-18T14:08:39.173Z,20.96
2019-05-18T14:11:09.474Z,20.54
2019-05-18T14:13:40.205Z,20.07
2019-05-18T14:16:10.721Z,19.20
2019-05-18T14:18:41.094Z,20.22
2019-05-18T14:21:11.933Z,20.40
2019-05-18T14:23:42.678Z,20.19
2019-05-18T14:26:13.052Z,20.60
2019-05-18T14:28:43.458Z,21.69
2019-05-18T14:31:14.294Z,21.24
2019-05-18T14:33:44.735Z,19.98
2019-05-18T14:36:15.358Z,20.89
2019-05-18T14:38:45.783Z,19.58
2019-05-18T14:41:16.581Z,19.77
2019-05-18T14:43:47.156Z,20.29
2019-05-18T14:46:17.527Z,18.99
2019-05-18T14:48:48.211Z,18.58
2019-05-18T14:51:19.090Z,19.00
2019-05-18T14:53:49.424Z,19.94
2019-05-18T14:56:19.839Z,19.77
2019-05-18T14:58:50.268Z,19.69
2019-05-18T15:01:20.568Z,19.31
2019-05-18T15:03:51.016Z,18.03
2019-05-18T15:06:21.699Z,17.45
2019-05-18T15:08:52.028Z,17.58
2019-05-18T15:11:22.362Z,17.35
2019-05-18T15:13:53.136Z,16.92
2019-05-18T15:16:23.623Z,16.97
2019-05-18T15:18:54.111Z,18.35
2019-05-18T15:21:24.780Z,17.39
2019-05-18T15:23:55.253Z,17.07
2019-05-18T15:26:25.588Z,16.43
2019-05-18T15:28:56.024Z,15.67
2019-05-18T15:31:26.665Z,15.27
2019-05-18T15:33:57.140Z,15.11
2019-05-18T15:36:27.659Z,14.98
2019-05-18T15:38:58.403Z,14.85
2019-05-18T15:41:28.699Z,14.34
2019-05-18T15:43:59.319Z,14.03
2019-05-18T15:46:29.664Z,14.31
2019-05-18T15:49:00.517Z,15.16
2019-05-18T15:51:31.403Z,15.15
2019-05-18T15:54:01.777Z,14.47
2019-05-18T15:56:32.412Z,15.32
2019-05-18T15:59:03.217Z,16.24
2019-05-18T16:01:33.520Z,15.88
2019-05-18T16:04:06.567Z,15.48
2019-05-18T16:06:36.636Z,15.33
2019-05-18T16:09:08.034Z,15.11
2019-05-18T16:11:38.337Z,14.99
2019-05-18T16:14:09.276Z,14.69
2019-05-18T16:16:40.817Z,14.89
2019-05-18T16:19:11.426Z,14.96
2019-05-18T16:21:41.784Z,14.45
2019-05-18T16:24:12.465Z,14.73
2019-05-18T16:26:43.007Z,14.40
2019-05-18T16:29:13.331Z,14.12
2019-05-18T16:31:43.742Z,14.17
2019-05-18T16:34:14.452Z,14.04
2019-05-18T16:36:45.013Z,14.20
2019-05-18T16:39:15.341Z,14.21
2019-05-18T16:41:46.240Z,15.26
2019-05-18T16:44:16.831Z,14.64
2019-05-18T16:46:47.293Z,14.87
2019-05-18T16:49:17.769Z,14.61
2019-05-18T16:51:48.161Z,15.15
2019-05-18T16:54:18.935Z,15.08
2019-05-18T16:56:49.260Z,14.99
2019-05-18T16:59:19.605Z,14.63
2019-05-18T17:01:50.411Z,15.09
2019-05-18T17:04:21.086Z,15.12
2019-05-18T17:06:51.451Z,15.54
2019-05-18T17:09:22.206Z,15.39
2019-05-18T17:11:53.105Z,15.94
2019-05-18T17:14:23.479Z,16.36
2019-05-18T17:16:53.861Z,16.54
2019-05-18T17:19:24.237Z,16.39
2019-05-18T17:21:54.752Z,16.69
2019-05-18T17:24:25.163Z,17.57
2019-05-18T17:26:55.560Z,17.89
2019-05-18T17:29:26.337Z,20.56
2019-05-18T17:31:57.040Z,20.75
2019-05-18T17:34:27.389Z,20.68
2019-05-18T17:36:57.855Z,20.51
2019-05-18T17:39:28.668Z,21.93
2019-05-18T17:41:58.970Z,26.49
2019-05-18T17:44:29.441Z,29.37
2019-05-18T17:47:00.083Z,30.04
2019-05-18T17:49:30.462Z,30.02
2019-05-18T17:52:01.136Z,32.49
2019-05-18T17:54:31.496Z,34.80
2019-05-18T17:57:08.536Z,35.31
2019-05-18T17:59:34.153Z,36.30
2019-05-18T18:02:04.681Z,38.86
2019-05-18T18:04:36.294Z,39.22
2019-05-18T18:07:06.982Z,40.27
2019-05-18T18:09:37.362Z,41.13
2019-05-18T18:12:07.826Z,40.84
2019-05-18T18:14:38.665Z,41.68
2019-05-18T18:17:09.354Z,41.91
2019-05-18T18:19:40.745Z,43.39
2019-05-18T18:22:11.717Z,42.43
2019-05-18T18:24:42.025Z,41.65
2019-05-18T18:27:24.927Z,41.77
2019-05-18T18:29:45.310Z,41.55
2019-05-18T18:32:15.767Z,42.37
2019-05-18T18:34:46.400Z,42.21
2019-05-18T18:37:16.875Z,42.27
2019-05-18T18:39:47.509Z,42.50
2019-05-18T18:42:19.538Z,42.28
2019-05-18T18:44:50.075Z,41.03
2019-05-18T18:47:20.374Z,40.49
2019-05-18T18:49:51.070Z,40.95
2019-05-18T18:52:21.455Z,40.09
2019-05-18T18:54:51.861Z,39.52
2019-05-18T18:57:22.179Z,39.08
2019-05-18T18:59:52.595Z,38.82
2019-05-18T19:02:24.506Z,38.27
2019-05-18T19:04:55.072Z,38.30
2019-05-18T19:07:25.415Z,38.21
2019-05-18T19:09:56.116Z,38.34
2019-05-18T19:12:26.796Z,37.97
2019-05-18T19:14:57.147Z,38.10
2019-05-18T19:17:27.714Z,37.94
2019-05-18T19:19:58.461Z,38.68
2019-05-18T19:22:28.758Z,38.54
2019-05-18T19:24:59.178Z,38.85
2019-05-18T19:27:29.568Z,38.85
2019-05-18T19:29:59.917Z,39.27
2019-05-18T19:32:30.240Z,39.39
2019-05-18T19:35:00.979Z,39.56
2019-05-18T19:37:31.432Z,39.36
2019-05-18T19:40:01.846Z,38.86
2019-05-18T19:42:32.855Z,39.07
2019-05-18T19:45:03.591Z,39.01
2019-05-18T19:47:33.866Z,39.63
2019-05-18T19:50:04.961Z,40.08
2019-05-18T19:52:35.472Z,39.80
2019-05-18T19:55:05.931Z,39.98
2019-05-18T19:57:36.687Z,39.26
2019-05-18T20:00:07.050Z,39.33
2019-05-18T20:02:39.158Z,39.41
2019-05-18T20:05:10.045Z,39.13
2019-05-18T20:07:40.383Z,41.16
2019-05-18T20:10:12.498Z,41.69
2019-05-18T20:12:43.267Z,42.35
2019-05-18T20:15:14.797Z,42.72
2019-05-18T20:17:45.510Z,43.25
2019-05-18T20:20:16.495Z,44.24
2019-05-18T20:22:46.826Z,44.44
2019-05-18T20:25:17.264Z,44.73
2019-05-18T20:27:47.804Z,45.80
2019-05-18T20:30:18.341Z,47.56
2019-05-18T20:32:49.027Z,47.42
2019-05-18T20:35:19.395Z,48.29
2019-05-18T20:37:49.878Z,49.12
2019-05-18T20:40:20.740Z,49.47
2019-05-18T20:42:51.208Z,49.78
2019-05-18T20:45:21.789Z,50.47
2019-05-18T20:47:52.578Z,51.66
2019-05-18T20:50:22.949Z,50.96
2019-05-18T20:52:53.337Z,51.49
2019-05-18T20:55:24.166Z,52.63
2019-05-18T20:57:54.540Z,53.99
2019-05-18T21:00:24.877Z,56.00
2019-05-18T21:02:55.586Z,58.28
2019-05-18T21:05:26.428Z,56.54
2019-05-18T21:07:57.132Z,58.83
2019-05-18T21:10:27.460Z,61.37
2019-05-18T21:12:57.876Z,59.28
2019-05-18T21:15:28.776Z,59.39
2019-05-18T21:17:59.089Z,60.33
2019-05-18T21:20:29.434Z,60.33
2019-05-18T21:23:00.245Z,60.49
2019-05-18T21:25:30.604Z,60.49
2019-05-18T21:28:00.933Z,61.92
2019-05-18T21:30:31.746Z,60.82
2019-05-18T21:33:02.318Z,60.79
2019-05-18T21:35:32.730Z,60.66
2019-05-18T21:38:03.516Z,60.66
2019-05-18T21:40:34.251Z,61.35
2019-05-18T21:43:04.577Z,62.25
2019-05-18T21:45:35.125Z,61.41
2019-05-18T21:48:05.725Z,59.97
2019-05-18T21:50:36.099Z,60.30
2019-05-18T21:53:06.444Z,62.04
2019-05-18T21:55:36.948Z,61.41
2019-05-18T21:58:07.284Z,60.04
2019-05-18T22:00:37.660Z,57.83
2019-05-18T22:03:10.082Z,61.80
2019-05-18T22:05:40.775Z,61.80
2019-05-18T22:08:11.375Z,61.80
2019-05-18T22:10:41.721Z,61.80
2019-05-18T22:13:12.132Z,60.13
2019-05-18T22:15:43.009Z,60.14
2019-05-18T22:18:24.115Z,60.14
2019-05-18T22:20:45.431Z,59.84
2019-05-18T22:23:15.873Z,58.92
2019-05-18T22:25:46.236Z,58.21
2019-05-18T22:28:16.544Z,58.48
2019-05-18T22:30:47.420Z,58.49
2019-05-18T22:33:18.149Z,58.36
2019-05-18T22:35:48.541Z,58.05
2019-05-18T22:38:19.403Z,59.55
2019-05-18T22:40:49.776Z,59.55
2019-05-18T22:43:20.505Z,58.49
2019-05-18T22:45:51.040Z,58.53
2019-05-18T22:48:21.338Z,61.98
2019-05-18T22:50:52.073Z,61.98
2019-05-18T22:53:22.513Z,61.87
2019-05-18T22:55:52.942Z,61.84
2019-05-18T22:58:23.610Z,61.74
2019-05-18T23:00:54.350Z,61.87
2019-05-18T23:03:24.714Z,62.44
2019-05-18T23:05:55.212Z,62.09
2019-05-18T23:08:25.882Z,62.52
2019-05-18T23:10:56.187Z,63.06
2019-05-18T23:13:28.299Z,63.35
2019-05-18T23:15:58.646Z,62.62
2019-05-18T23:18:29.088Z,63.21
2019-05-18T23:20:59.543Z,64.69
2019-05-18T23:23:29.913Z,64.49
2019-05-18T23:26:00.400Z,64.01
2019-05-18T23:28:31.098Z,64.50
2019-05-18T23:31:01.498Z,64.44
2019-05-18T23:33:31.858Z,66.38
2019-05-18T23:36:02.485Z,65.50
2019-05-18T23:38:32.865Z,64.55
2019-05-18T23:41:03.231Z,65.19
2019-05-18T23:43:33.935Z,66.29
2019-05-18T23:46:04.331Z,65.96
2019-05-18T23:48:34.642Z,66.79
2019-05-18T23:51:05.465Z,67.45
2019-05-18T23:53:35.884Z,67.85
2019-05-18T23:56:07.276Z,68.04
2019-05-18T23:58:37.962Z,67.37
